Terminal Aerodrome Forecast
Issued by NWS

Home | Current Version | Previous Version | Text Only | Print | Product List | Glossary On
Versions: 1 2 3 4 5 6 7 8 9 10 11 12 13 14
000
FTUS43 KEAX 180500
TAFMKC
TAF
KMKC 180520Z 1806/1906 00000KT P6SM FEW090
     FM181200 13008KT P6SM VCSH BKN040
      TEMPO 1814/1818 4SM -TSRA BKN030CB
     FM181900 18010KT P6SM VCSH BKN030
      TEMPO 1820/1824 4SM -TSRA BKN030CB=

USA.gov is the U.S. government's official web portal to all federal, state and local government web resources and services.